createdAt,value
2022-10-18T00:00:48.526Z,17.29
2022-10-18T00:01:50.984Z,17.27
2022-10-18T00:02:53.170Z,17.21
2022-10-18T00:03:55.362Z,17.20
2022-10-18T00:04:57.507Z,17.20
2022-10-18T00:06:00.137Z,17.14
2022-10-18T00:07:02.439Z,17.13
2022-10-18T00:08:04.745Z,17.06
2022-10-18T00:09:07.039Z,17.09
2022-10-18T00:10:10.109Z,17.10
2022-10-18T00:11:12.414Z,17.08
2022-10-18T00:12:14.725Z,17.10
2022-10-18T00:13:17.442Z,17.06
2022-10-18T00:14:19.783Z,17.15
2022-10-18T00:15:21.938Z,17.12
2022-10-18T00:16:24.105Z,17.09
2022-10-18T00:17:29.447Z,17.03
2022-10-18T00:18:32.389Z,17.02
2022-10-18T00:19:34.669Z,17.04
2022-10-18T00:20:36.881Z,17.03
2022-10-18T00:21:39.169Z,17.03
2022-10-18T00:22:42.233Z,16.99
2022-10-18T00:23:45.836Z,16.94
2022-10-18T00:24:48.259Z,16.96
2022-10-18T00:26:02.183Z,16.97
2022-10-18T00:27:04.564Z,16.86
2022-10-18T00:28:06.780Z,16.89
2022-10-18T00:29:15.004Z,16.86
2022-10-18T00:30:17.179Z,16.83
2022-10-18T00:31:27.825Z,16.90
2022-10-18T00:32:30.203Z,16.89
2022-10-18T00:33:32.702Z,16.83
2022-10-18T00:34:35.041Z,16.83
2022-10-18T00:35:37.173Z,16.79
2022-10-18T00:36:39.688Z,16.80
2022-10-18T00:37:41.830Z,16.82
2022-10-18T00:38:44.999Z,16.85
2022-10-18T00:39:47.438Z,17.07
2022-10-18T00:40:49.599Z,17.15
2022-10-18T00:41:52.361Z,17.10
2022-10-18T00:42:54.499Z,17.02
2022-10-18T00:44:06.982Z,16.90
2022-10-18T00:45:21.700Z,16.80
2022-10-18T00:46:25.477Z,16.80
2022-10-18T00:47:40.156Z,16.79
2022-10-18T00:48:42.434Z,16.75
2022-10-18T00:49:52.792Z,16.75
2022-10-18T00:50:55.214Z,16.76
2022-10-18T00:52:05.083Z,16.74
2022-10-18T00:53:12.969Z,16.75
2022-10-18T00:54:17.079Z,16.73
2022-10-18T00:55:20.704Z,16.76
2022-10-18T00:56:23.133Z,16.72
2022-10-18T00:57:25.960Z,16.68
2022-10-18T00:58:29.129Z,16.65
2022-10-18T00:59:31.393Z,16.62
2022-10-18T01:00:35.040Z,16.61
2022-10-18T01:01:37.270Z,16.61
2022-10-18T01:02:42.014Z,16.56
2022-10-18T01:03:44.886Z,16.56
2022-10-18T01:04:47.967Z,16.56
2022-10-18T01:05:50.371Z,16.53
2022-10-18T01:07:21.383Z,16.53
2022-10-18T01:08:28.783Z,16.50
2022-10-18T01:09:36.659Z,16.53
2022-10-18T01:10:45.967Z,16.57
2022-10-18T01:12:23.449Z,16.59
2022-10-18T01:14:11.789Z,16.49
2022-10-18T01:15:29.701Z,16.46
2022-10-18T01:16:42.532Z,16.43
2022-10-18T01:18:21.010Z,16.46
2022-10-18T01:19:47.973Z,16.46
2022-10-18T01:21:13.184Z,16.49
2022-10-18T01:23:00.576Z,16.49
2022-10-18T01:24:19.184Z,16.44
2022-10-18T01:25:30.089Z,16.43
2022-10-18T01:26:38.568Z,16.42
2022-10-18T01:27:46.928Z,16.39
2022-10-18T01:29:24.680Z,16.38
2022-10-18T01:30:38.129Z,16.38
2022-10-18T01:31:46.901Z,16.39
2022-10-18T01:32:52.996Z,16.41
2022-10-18T01:34:00.002Z,16.37
2022-10-18T01:35:08.842Z,16.39
2022-10-18T01:36:28.687Z,16.36
2022-10-18T01:37:33.086Z,16.33
2022-10-18T01:38:38.253Z,16.30
2022-10-18T01:39:43.493Z,16.26
2022-10-18T01:40:50.379Z,16.23
2022-10-18T01:41:54.606Z,16.21
2022-10-18T01:42:56.985Z,16.21
2022-10-18T01:44:02.088Z,16.24
2022-10-18T01:45:04.867Z,16.24
2022-10-18T01:46:09.330Z,16.28
2022-10-18T01:47:13.819Z,16.27
2022-10-18T01:48:16.669Z,16.28
2022-10-18T01:49:19.175Z,16.30
2022-10-18T01:50:35.006Z,16.28
2022-10-18T01:51:37.432Z,16.28
2022-10-18T01:52:52.138Z,16.27
2022-10-18T01:53:54.739Z,16.25
2022-10-18T01:54:59.473Z,16.24
2022-10-18T01:56:10.521Z,16.23
2022-10-18T01:57:22.944Z,16.29
2022-10-18T01:58:37.283Z,16.29
2022-10-18T02:00:04.025Z,16.29
2022-10-18T02:01:31.345Z,16.38
2022-10-18T02:02:51.186Z,16.36
2022-10-18T02:03:58.086Z,16.37
2022-10-18T02:05:35.169Z,16.32
2022-10-18T02:06:45.104Z,16.27
2022-10-18T02:08:23.259Z,16.27
2022-10-18T02:09:36.228Z,16.29
2022-10-18T02:10:46.570Z,16.25
2022-10-18T02:11:54.030Z,16.27
2022-10-18T02:12:57.566Z,16.29
2022-10-18T02:14:12.982Z,16.27
2022-10-18T02:15:19.960Z,16.27
2022-10-18T02:16:35.776Z,16.21
2022-10-18T02:17:40.292Z,16.21
2022-10-18T02:18:49.367Z,16.19
2022-10-18T02:19:54.842Z,16.19
2022-10-18T02:20:59.031Z,16.19
2022-10-18T02:22:02.140Z,16.20
2022-10-18T02:23:07.439Z,16.24
2022-10-18T02:24:12.918Z,16.26
2022-10-18T02:25:21.272Z,16.24
2022-10-18T02:26:23.958Z,16.24
2022-10-18T02:27:26.233Z,16.30
2022-10-18T02:28:28.654Z,16.31
2022-10-18T02:29:32.059Z,16.22
2022-10-18T02:30:52.729Z,16.20
2022-10-18T02:32:09.434Z,16.22
2022-10-18T02:33:22.146Z,16.18
2022-10-18T02:34:35.248Z,16.19
2022-10-18T02:35:45.026Z,16.19
2022-10-18T02:36:58.263Z,16.20
2022-10-18T02:38:01.758Z,16.19
2022-10-18T02:39:11.605Z,16.21
2022-10-18T02:40:15.250Z,16.17
2022-10-18T02:41:27.979Z,16.14
2022-10-18T02:42:35.875Z,16.15
2022-10-18T02:43:38.211Z,16.13
2022-10-18T02:44:40.670Z,16.13
2022-10-18T02:45:43.027Z,16.12
2022-10-18T02:46:46.716Z,16.17
2022-10-18T02:47:49.076Z,16.15
2022-10-18T02:48:51.358Z,16.14
2022-10-18T02:49:53.683Z,16.17
2022-10-18T02:50:56.002Z,16.13
2022-10-18T02:51:58.447Z,16.14
2022-10-18T02:53:00.775Z,16.11
2022-10-18T02:54:03.607Z,16.12
2022-10-18T02:55:09.417Z,16.15
2022-10-18T02:56:11.687Z,16.16
2022-10-18T02:57:14.032Z,16.13
2022-10-18T02:58:16.297Z,16.05
2022-10-18T02:59:18.648Z,16.05
2022-10-18T03:00:20.989Z,16.03
2022-10-18T03:01:24.428Z,16.03
2022-10-18T03:02:27.069Z,16.02
2022-10-18T03:03:29.261Z,15.99
2022-10-18T03:04:31.615Z,16.04
2022-10-18T03:05:33.816Z,16.10
2022-10-18T03:06:36.293Z,16.18
2022-10-18T03:07:38.617Z,16.16
2022-10-18T03:08:40.838Z,16.15
2022-10-18T03:09:43.152Z,16.16
2022-10-18T03:10:46.315Z,16.17
2022-10-18T03:11:48.660Z,16.16
2022-10-18T03:12:50.834Z,16.26
2022-10-18T03:13:53.165Z,16.26
2022-10-18T03:14:55.320Z,16.29
2022-10-18T03:15:57.639Z,16.29
2022-10-18T03:16:59.942Z,16.31
2022-10-18T03:18:02.104Z,16.27
2022-10-18T03:19:04.439Z,16.22
2022-10-18T03:20:07.162Z,16.24
2022-10-18T03:21:10.433Z,16.22
2022-10-18T03:22:12.724Z,16.24
2022-10-18T03:23:14.867Z,16.27
2022-10-18T03:24:17.236Z,16.27
2022-10-18T03:25:19.513Z,16.32
2022-10-18T03:26:21.817Z,16.30
2022-10-18T03:27:24.332Z,16.28
2022-10-18T03:28:26.783Z,16.23
2022-10-18T03:29:29.009Z,16.22
2022-10-18T03:30:31.270Z,16.25
2022-10-18T03:31:33.939Z,16.28
2022-10-18T03:32:36.436Z,16.28
2022-10-18T03:33:38.856Z,16.27
2022-10-18T03:34:41.030Z,16.29
2022-10-18T03:35:43.400Z,16.33
2022-10-18T03:36:45.590Z,16.36
2022-10-18T03:37:48.207Z,16.36
2022-10-18T03:38:50.437Z,16.36
2022-10-18T03:39:52.634Z,16.36
2022-10-18T03:40:54.901Z,16.32
2022-10-18T03:41:57.143Z,16.35
2022-10-18T03:42:59.631Z,16.38
2022-10-18T03:44:01.868Z,16.33
2022-10-18T03:45:04.915Z,16.34
2022-10-18T03:46:07.281Z,16.33
2022-10-18T03:47:09.466Z,16.32
2022-10-18T03:48:11.909Z,16.37
2022-10-18T03:49:14.262Z,16.39
2022-10-18T03:50:16.509Z,16.40
2022-10-18T03:51:18.706Z,16.41
2022-10-18T03:52:21.031Z,16.42
2022-10-18T03:53:23.225Z,16.44
2022-10-18T03:54:25.530Z,16.50
2022-10-18T03:55:27.881Z,16.49
2022-10-18T03:56:30.073Z,16.46
2022-10-18T03:57:32.410Z,16.49
2022-10-18T03:59:41.677Z,16.48
2022-10-18T04:00:43.998Z,16.54
2022-10-18T04:01:46.176Z,16.58
2022-10-18T04:02:52.017Z,16.59
2022-10-18T04:03:57.200Z,16.73
2022-10-18T04:04:59.401Z,16.86
2022-10-18T04:06:03.462Z,16.87
2022-10-18T04:07:05.617Z,16.87
2022-10-18T04:08:08.199Z,16.84
2022-10-18T04:09:10.506Z,16.84
2022-10-18T04:10:12.925Z,16.78
2022-10-18T04:11:15.307Z,16.71
2022-10-18T04:12:17.599Z,16.71
2022-10-18T04:13:19.933Z,16.67
2022-10-18T04:14:22.191Z,16.62
2022-10-18T04:15:24.450Z,16.66
2022-10-18T04:16:26.914Z,16.66
2022-10-18T04:17:29.392Z,16.64
2022-10-18T04:18:32.232Z,16.61
2022-10-18T04:19:34.458Z,16.60
2022-10-18T04:20:36.817Z,16.64
2022-10-18T04:21:39.148Z,16.64
2022-10-18T04:22:41.464Z,16.61
2022-10-18T04:23:44.001Z,16.61
2022-10-18T04:24:46.157Z,16.59
2022-10-18T04:25:48.328Z,16.59
2022-10-18T04:26:51.454Z,16.56
2022-10-18T04:27:53.781Z,16.61
2022-10-18T04:28:55.979Z,16.58
2022-10-18T04:29:58.323Z,16.56
2022-10-18T04:31:01.120Z,16.54
2022-10-18T04:32:03.545Z,16.55
2022-10-18T04:33:05.963Z,16.55
2022-10-18T04:34:09.008Z,16.53
2022-10-18T04:35:11.702Z,16.54
2022-10-18T04:36:13.871Z,16.51
2022-10-18T04:37:16.079Z,16.55
2022-10-18T04:38:19.923Z,16.52
2022-10-18T04:39:22.104Z,16.52
2022-10-18T04:40:24.435Z,16.54
2022-10-18T04:41:26.582Z,16.57
2022-10-18T04:42:28.736Z,16.58
2022-10-18T04:43:31.334Z,16.61
2022-10-18T04:44:34.423Z,16.60
2022-10-18T04:45:36.673Z,16.59
2022-10-18T04:46:38.820Z,16.61
2022-10-18T04:47:41.140Z,16.61
2022-10-18T04:48:43.556Z,16.65
2022-10-18T04:49:45.711Z,16.65
2022-10-18T04:50:49.783Z,16.66
2022-10-18T04:51:51.965Z,16.67
2022-10-18T04:52:54.270Z,16.69
2022-10-18T04:53:56.755Z,16.67
2022-10-18T04:54:58.952Z,16.68
2022-10-18T04:56:01.259Z,16.69
2022-10-18T04:57:03.924Z,16.73
2022-10-18T04:58:06.082Z,16.73
2022-10-18T04:59:08.649Z,16.75
2022-10-18T05:00:11.322Z,16.75
2022-10-18T05:01:13.618Z,16.75
2022-10-18T05:02:15.808Z,16.73
2022-10-18T05:03:18.268Z,16.72
2022-10-18T05:04:20.587Z,16.80
2022-10-18T05:05:23.198Z,16.94
2022-10-18T05:06:27.214Z,17.29
2022-10-18T05:07:29.391Z,17.31
2022-10-18T05:08:33.748Z,17.29
2022-10-18T05:09:35.971Z,17.20
2022-10-18T05:10:38.428Z,17.15
2022-10-18T05:11:40.634Z,17.11
2022-10-18T05:12:43.822Z,17.06
2022-10-18T05:13:48.622Z,16.99
2022-10-18T05:14:53.315Z,16.91
2022-10-18T05:15:55.918Z,16.90
2022-10-18T05:16:58.354Z,16.87
2022-10-18T05:18:00.541Z,16.87
2022-10-18T05:19:05.251Z,16.84
2022-10-18T05:20:07.775Z,16.86
2022-10-18T05:21:10.707Z,16.86
2022-10-18T05:22:12.877Z,16.86
2022-10-18T05:23:15.087Z,16.92
2022-10-18T05:24:17.555Z,16.91
2022-10-18T05:25:19.728Z,16.83
2022-10-18T05:26:22.029Z,16.85
2022-10-18T05:27:24.189Z,16.85
2022-10-18T05:28:42.153Z,16.86
2022-10-18T05:29:44.622Z,16.92
2022-10-18T05:30:46.825Z,16.91
2022-10-18T05:31:49.621Z,16.89
2022-10-18T05:32:51.794Z,16.84
2022-10-18T05:33:54.101Z,16.79
2022-10-18T05:34:56.626Z,16.80
2022-10-18T05:35:59.530Z,16.80
2022-10-18T05:37:01.704Z,16.83
2022-10-18T05:38:06.180Z,16.94
2022-10-18T05:39:08.365Z,16.97
2022-10-18T05:40:11.259Z,16.96
2022-10-18T05:41:13.880Z,16.94
2022-10-18T05:42:16.160Z,16.90
2022-10-18T05:43:18.403Z,16.92
2022-10-18T05:44:21.662Z,16.94
2022-10-18T05:45:23.836Z,16.98
2022-10-18T05:46:26.110Z,17.00
2022-10-18T05:47:28.333Z,17.09
2022-10-18T05:48:31.165Z,17.22
2022-10-18T05:49:33.504Z,17.36
2022-10-18T05:50:38.141Z,17.40
2022-10-18T05:51:42.764Z,17.32
2022-10-18T05:52:44.994Z,17.23
2022-10-18T05:53:47.587Z,17.12
2022-10-18T05:54:49.917Z,17.04
2022-10-18T05:55:52.246Z,17.02
2022-10-18T05:56:54.457Z,16.99
2022-10-18T05:57:56.906Z,17.02
2022-10-18T05:58:59.060Z,17.00
2022-10-18T06:00:01.528Z,17.00
2022-10-18T06:01:13.912Z,16.97
2022-10-18T06:02:16.343Z,16.98
2022-10-18T06:03:18.730Z,16.89
2022-10-18T06:04:21.250Z,17.00
2022-10-18T06:05:23.583Z,17.09
2022-10-18T06:06:25.783Z,17.21
2022-10-18T06:07:27.951Z,17.24
2022-10-18T06:08:30.335Z,17.28
2022-10-18T06:09:32.515Z,17.35
2022-10-18T06:10:34.838Z,17.31
2022-10-18T06:11:37.349Z,17.31
2022-10-18T06:12:39.627Z,17.40
2022-10-18T06:13:43.607Z,17.38
2022-10-18T06:14:45.795Z,17.32
2022-10-18T06:15:48.136Z,17.27
2022-10-18T06:16:50.577Z,17.17
2022-10-18T06:17:52.747Z,17.16
2022-10-18T06:18:57.318Z,17.12
2022-10-18T06:19:59.527Z,17.17
2022-10-18T06:21:02.179Z,17.17
2022-10-18T06:22:04.857Z,17.11
2022-10-18T06:23:07.019Z,17.10
2022-10-18T06:24:09.233Z,17.07
2022-10-18T06:25:11.715Z,17.06
2022-10-18T06:26:13.867Z,17.07
2022-10-18T06:27:16.272Z,17.19
2022-10-18T06:28:18.463Z,17.31
2022-10-18T06:29:20.603Z,17.41
2022-10-18T06:30:23.088Z,17.34
2022-10-18T06:31:25.357Z,17.34
2022-10-18T06:32:27.561Z,17.34
2022-10-18T06:33:31.406Z,17.32
2022-10-18T06:34:34.087Z,17.26
2022-10-18T06:35:36.568Z,17.22
2022-10-18T06:36:38.745Z,17.26
2022-10-18T06:38:48.745Z,17.38
2022-10-18T06:39:50.890Z,17.35
2022-10-18T06:40:54.294Z,17.39
2022-10-18T06:41:56.471Z,17.40
2022-10-18T06:43:19.587Z,17.40
2022-10-18T06:44:23.198Z,17.41
2022-10-18T06:45:25.628Z,17.36
2022-10-18T06:46:27.834Z,17.34
2022-10-18T06:47:30.046Z,17.26
2022-10-18T06:48:32.935Z,17.15
2022-10-18T06:49:35.224Z,17.16
2022-10-18T06:50:37.897Z,17.16
2022-10-18T06:51:40.777Z,17.21
2022-10-18T06:52:43.519Z,17.17
2022-10-18T06:53:59.060Z,17.13
2022-10-18T06:55:09.201Z,17.10
2022-10-18T06:56:13.513Z,17.07
2022-10-18T06:57:15.668Z,17.19
2022-10-18T06:58:18.082Z,17.24
2022-10-18T06:59:20.207Z,17.09
2022-10-18T07:00:22.547Z,17.04
2022-10-18T07:01:24.750Z,17.00
2022-10-18T07:02:26.982Z,16.96
2022-10-18T07:03:29.451Z,16.94
2022-10-18T07:04:31.654Z,16.96
2022-10-18T07:06:41.156Z,16.95
2022-10-18T07:07:43.389Z,16.97
2022-10-18T07:08:47.322Z,16.96
2022-10-18T07:09:49.476Z,17.00
2022-10-18T07:10:53.369Z,17.20
2022-10-18T07:11:55.492Z,17.11
2022-10-18T07:13:13.538Z,17.10
2022-10-18T07:14:19.931Z,17.09
2022-10-18T07:15:24.045Z,17.25
2022-10-18T07:16:26.623Z,17.35
2022-10-18T07:17:29.050Z,17.38
2022-10-18T07:18:33.141Z,17.35
2022-10-18T07:19:35.496Z,17.26
2022-10-18T07:20:37.819Z,17.21
2022-10-18T07:21:40.100Z,17.11
2022-10-18T07:22:42.272Z,17.02
2022-10-18T07:23:48.481Z,16.99
2022-10-18T07:24:50.991Z,16.94
2022-10-18T07:25:53.155Z,16.94
2022-10-18T07:26:55.509Z,16.98
2022-10-18T07:27:57.734Z,17.09
2022-10-18T07:29:08.752Z,17.17
2022-10-18T07:30:11.559Z,17.17
2022-10-18T07:31:14.211Z,17.19
2022-10-18T07:32:16.554Z,17.20
2022-10-18T07:33:20.695Z,17.18
2022-10-18T07:34:22.887Z,17.16
2022-10-18T07:35:25.053Z,17.11
2022-10-18T07:36:27.284Z,17.05
2022-10-18T07:37:30.533Z,16.98
2022-10-18T07:38:32.953Z,16.90
2022-10-18T07:39:35.100Z,16.87
2022-10-18T07:40:37.235Z,16.95
2022-10-18T07:41:39.844Z,17.02
2022-10-18T07:42:42.618Z,17.09
2022-10-18T07:43:48.836Z,17.11
2022-10-18T07:44:51.154Z,17.19
2022-10-18T07:45:54.841Z,17.24
2022-10-18T07:46:57.158Z,17.25
2022-10-18T07:47:59.543Z,17.31
2022-10-18T07:49:01.756Z,17.31
2022-10-18T07:50:03.947Z,17.20
2022-10-18T07:51:06.725Z,17.20
2022-10-18T07:52:09.165Z,17.34
2022-10-18T07:53:11.304Z,17.31
2022-10-18T07:54:13.528Z,17.26
2022-10-18T07:55:15.831Z,17.22
2022-10-18T07:56:21.275Z,17.26
2022-10-18T07:57:24.002Z,17.23
2022-10-18T07:58:26.538Z,17.21
2022-10-18T07:59:28.681Z,17.22
2022-10-18T08:00:31.081Z,17.21
2022-10-18T08:01:34.367Z,17.25
2022-10-18T08:02:36.815Z,17.24
2022-10-18T08:03:39.110Z,17.28
2022-10-18T08:04:41.616Z,17.25
2022-10-18T08:05:43.933Z,17.16
2022-10-18T08:06:46.252Z,17.12
2022-10-18T08:07:48.571Z,17.12
2022-10-18T08:08:50.784Z,17.10
2022-10-18T08:09:52.994Z,17.14
2022-10-18T08:10:55.828Z,17.17
2022-10-18T08:11:58.021Z,17.03
2022-10-18T08:13:00.434Z,17.02
2022-10-18T08:14:02.634Z,17.09
2022-10-18T08:15:05.233Z,17.09
2022-10-18T08:16:10.207Z,17.12
2022-10-18T08:17:12.507Z,17.08
2022-10-18T08:18:14.655Z,17.04
2022-10-18T08:19:16.967Z,16.96
2022-10-18T08:20:30.404Z,16.97
2022-10-18T08:21:33.501Z,17.03
2022-10-18T08:22:35.746Z,17.03
2022-10-18T08:23:38.656Z,17.00
2022-10-18T08:24:40.807Z,16.95
2022-10-18T08:25:42.974Z,16.94
2022-10-18T08:26:45.108Z,16.72
2022-10-18T08:27:47.550Z,16.59
2022-10-18T08:28:58.345Z,16.44
2022-10-18T08:30:12.048Z,16.34
2022-10-18T08:31:19.775Z,16.36
2022-10-18T08:32:21.962Z,16.53
2022-10-18T08:33:24.188Z,16.66
2022-10-18T08:34:26.437Z,16.84
2022-10-18T08:35:28.601Z,16.94
2022-10-18T08:36:30.762Z,17.09
2022-10-18T08:37:33.441Z,17.18
2022-10-18T08:38:37.846Z,17.21
2022-10-18T08:39:39.991Z,17.20
2022-10-18T08:40:44.499Z,17.13
2022-10-18T08:42:04.039Z,17.04
2022-10-18T08:43:21.461Z,16.92
2022-10-18T08:44:30.237Z,16.88
2022-10-18T08:45:42.358Z,16.86
2022-10-18T08:46:51.137Z,16.85
2022-10-18T08:47:57.330Z,16.79
2022-10-18T08:49:01.848Z,16.82
2022-10-18T08:50:14.791Z,16.91
2022-10-18T08:51:42.455Z,16.89
2022-10-18T08:53:17.783Z,16.98
2022-10-18T08:54:33.663Z,17.05
2022-10-18T08:55:42.213Z,17.13
2022-10-18T08:56:54.340Z,17.15
2022-10-18T08:57:58.240Z,17.09
2022-10-18T08:59:04.180Z,17.03
2022-10-18T09:00:26.082Z,17.05
2022-10-18T09:01:28.364Z,17.11
2022-10-18T09:02:52.879Z,17.16
2022-10-18T09:04:01.394Z,17.19
2022-10-18T09:05:24.932Z,17.29
2022-10-18T09:06:44.658Z,17.50
2022-10-18T09:08:11.508Z,17.37
2022-10-18T09:09:36.928Z,17.40
2022-10-18T09:10:53.537Z,17.41
2022-10-18T09:12:21.033Z,17.51
2022-10-18T09:13:42.165Z,17.51
2022-10-18T09:15:09.481Z,17.71
2022-10-18T09:16:16.850Z,17.69
2022-10-18T09:17:35.350Z,17.66
2022-10-18T09:19:02.605Z,17.27
2022-10-18T09:20:25.268Z,16.96
2022-10-18T09:21:38.295Z,16.82
2022-10-18T09:23:12.506Z,16.87
2022-10-18T09:24:26.497Z,17.06
2022-10-18T09:25:47.097Z,17.24
2022-10-18T09:26:54.798Z,17.29
2022-10-18T09:28:14.227Z,17.26
2022-10-18T09:29:46.618Z,17.17
2022-10-18T09:30:59.802Z,17.18
2022-10-18T09:32:44.385Z,16.95
2022-10-18T09:34:05.386Z,16.80
2022-10-18T09:35:16.805Z,16.76
2022-10-18T09:36:39.007Z,16.80
2022-10-18T09:37:43.268Z,16.81
2022-10-18T09:38:49.255Z,16.71
2022-10-18T09:40:00.010Z,16.71
2022-10-18T09:41:13.461Z,16.78
2022-10-18T09:42:27.014Z,16.85
2022-10-18T09:43:58.847Z,16.75
2022-10-18T09:45:08.098Z,16.65
2022-10-18T09:46:11.339Z,16.62
2022-10-18T09:47:21.504Z,16.60
2022-10-18T09:48:29.577Z,16.65
2022-10-18T09:49:42.187Z,16.73
2022-10-18T09:50:50.937Z,16.73
2022-10-18T09:51:54.310Z,16.75
2022-10-18T09:53:20.992Z,16.70
2022-10-18T09:54:42.045Z,16.64
2022-10-18T09:56:05.348Z,16.71
2022-10-18T09:57:15.294Z,16.71
2022-10-18T09:58:20.559Z,16.66
2022-10-18T09:59:40.545Z,16.56
2022-10-18T10:00:48.399Z,16.60
2022-10-18T10:01:50.616Z,16.63
2022-10-18T10:02:52.976Z,16.71
2022-10-18T10:03:55.272Z,16.62
2022-10-18T10:04:57.681Z,16.69
2022-10-18T10:06:11.839Z,16.60
2022-10-18T10:07:29.891Z,16.55
2022-10-18T10:08:35.468Z,16.66
2022-10-18T10:10:01.684Z,16.72
2022-10-18T10:11:04.048Z,16.79
2022-10-18T10:12:24.780Z,16.87
2022-10-18T10:13:27.975Z,16.91
2022-10-18T10:14:30.783Z,16.83
2022-10-18T10:15:37.173Z,16.84
2022-10-18T10:16:51.506Z,16.86
2022-10-18T10:18:01.540Z,16.79
2022-10-18T10:19:03.624Z,16.80
2022-10-18T10:20:20.248Z,16.85
2022-10-18T10:21:23.389Z,16.83
2022-10-18T10:22:36.000Z,16.81
2022-10-18T10:23:54.789Z,16.77
2022-10-18T10:24:57.023Z,16.84
2022-10-18T10:26:04.981Z,16.89
2022-10-18T10:27:17.106Z,16.79
2022-10-18T10:28:26.528Z,16.71
2022-10-18T10:29:46.930Z,16.65
2022-10-18T10:30:49.332Z,16.70
2022-10-18T10:32:04.262Z,16.79
2022-10-18T10:33:27.003Z,16.76
2022-10-18T10:34:29.875Z,16.85
2022-10-18T10:35:54.278Z,16.86
2022-10-18T10:36:56.733Z,16.88
2022-10-18T10:37:59.191Z,16.80
2022-10-18T10:39:12.110Z,16.71
2022-10-18T10:40:20.276Z,16.70
2022-10-18T10:41:24.154Z,16.64
2022-10-18T10:42:26.505Z,16.58
2022-10-18T10:43:40.015Z,16.58
2022-10-18T10:44:55.061Z,16.61
2022-10-18T10:45:59.662Z,16.65
2022-10-18T10:47:02.243Z,16.60
2022-10-18T10:48:16.761Z,16.58
2022-10-18T10:49:40.266Z,16.53
2022-10-18T10:50:55.288Z,16.59
2022-10-18T10:52:09.246Z,16.64
2022-10-18T10:53:52.631Z,16.58
2022-10-18T10:55:05.683Z,16.61
2022-10-18T10:56:28.796Z,16.48
2022-10-18T10:57:31.868Z,16.43
2022-10-18T10:58:37.466Z,16.32
2022-10-18T10:59:56.229Z,16.37
2022-10-18T11:00:58.497Z,16.45
2022-10-18T11:02:19.090Z,16.52
2022-10-18T11:03:29.095Z,16.59
2022-10-18T11:04:32.415Z,16.59
2022-10-18T11:05:43.853Z,16.64
2022-10-18T11:06:52.000Z,16.69
2022-10-18T11:08:02.022Z,16.65
2022-10-18T11:09:15.686Z,16.60
2022-10-18T11:10:22.895Z,16.59
2022-10-18T11:11:33.290Z,16.71
2022-10-18T11:12:47.340Z,16.70
2022-10-18T11:14:07.224Z,16.70
2022-10-18T11:15:26.245Z,16.76
2022-10-18T11:16:42.637Z,16.69
2022-10-18T11:18:08.964Z,16.64
2022-10-18T11:19:41.064Z,16.73
2022-10-18T11:21:08.029Z,16.78
2022-10-18T11:22:17.193Z,16.86
2022-10-18T11:23:19.673Z,16.81
2022-10-18T11:24:23.285Z,16.77
2022-10-18T11:25:53.317Z,16.81
2022-10-18T11:27:16.767Z,16.92
2022-10-18T11:28:28.716Z,16.89
2022-10-18T11:30:08.082Z,16.83
2022-10-18T11:31:35.812Z,16.91
2022-10-18T11:33:12.078Z,17.02
2022-10-18T11:34:32.378Z,16.88
2022-10-18T11:35:49.830Z,16.86
2022-10-18T11:37:02.297Z,16.88
2022-10-18T11:38:42.375Z,16.95
2022-10-18T11:40:10.505Z,16.92
2022-10-18T11:41:30.891Z,16.99
2022-10-18T11:42:35.665Z,17.03
2022-10-18T11:44:01.599Z,16.77
2022-10-18T11:46:53.781Z,17.04
2022-10-18T11:48:04.710Z,16.98
2022-10-18T11:49:30.155Z,17.02
2022-10-18T11:50:50.981Z,16.87
2022-10-18T11:52:07.433Z,17.00
2022-10-18T11:53:22.883Z,17.14
2022-10-18T11:54:46.097Z,17.14
2022-10-18T11:55:56.810Z,17.03
2022-10-18T11:57:26.516Z,17.15
2022-10-18T11:58:31.491Z,17.12
2022-10-18T12:00:11.780Z,16.96
2022-10-18T12:01:28.499Z,16.96
2022-10-18T12:02:49.196Z,16.51
2022-10-18T12:04:49.037Z,16.62
2022-10-18T12:06:14.891Z,16.84
2022-10-18T12:07:26.791Z,16.81
2022-10-18T12:08:43.862Z,16.86
2022-10-18T12:11:06.026Z,16.83
2022-10-18T12:12:23.050Z,16.96
2022-10-18T12:13:44.080Z,16.99
2022-10-18T12:14:55.185Z,17.04
2022-10-18T12:15:57.774Z,16.98
2022-10-18T12:17:39.816Z,17.05
2022-10-18T12:18:30.688Z,17.21
2022-10-18T12:19:35.510Z,17.24
2022-10-18T12:20:47.017Z,17.25
2022-10-18T12:21:49.735Z,17.28
2022-10-18T12:23:01.891Z,17.32
2022-10-18T12:24:16.046Z,17.36
2022-10-18T12:25:19.102Z,17.36
2022-10-18T12:26:22.677Z,17.33
2022-10-18T12:27:53.273Z,17.35
2022-10-18T12:29:08.506Z,17.34
2022-10-18T12:30:58.639Z,17.34
2022-10-18T12:32:11.263Z,17.26
2022-10-18T12:33:33.723Z,17.30
2022-10-18T12:34:53.882Z,17.33
2022-10-18T12:36:20.074Z,17.32
2022-10-18T12:37:31.553Z,17.27
2022-10-18T12:38:37.852Z,17.35
2022-10-18T12:40:11.472Z,17.39
2022-10-18T12:41:22.931Z,17.27
2022-10-18T12:42:31.178Z,17.29
2022-10-18T12:43:37.991Z,17.32
2022-10-18T12:44:40.195Z,17.34
2022-10-18T12:45:52.796Z,17.38
2022-10-18T12:46:58.161Z,17.44
2022-10-18T12:48:07.538Z,17.45
2022-10-18T12:49:12.246Z,17.50
2022-10-18T12:50:23.299Z,17.46
2022-10-18T12:51:25.535Z,17.37
2022-10-18T12:52:31.938Z,17.21
2022-10-18T12:53:35.150Z,17.31
2022-10-18T12:54:39.614Z,17.43
2022-10-18T12:55:45.291Z,17.55
2022-10-18T12:56:47.720Z,17.64
2022-10-18T12:57:52.940Z,17.52
2022-10-18T12:59:14.056Z,17.52
2022-10-18T13:00:31.203Z,17.49
2022-10-18T13:01:56.582Z,17.45
2022-10-18T13:03:14.279Z,17.44
2022-10-18T13:04:28.666Z,17.15
2022-10-18T13:05:54.868Z,17.09
2022-10-18T13:07:00.534Z,17.09
2022-10-18T13:08:31.692Z,16.91
2022-10-18T13:09:39.517Z,17.03
2022-10-18T13:10:41.939Z,17.08
2022-10-18T13:11:44.270Z,17.12
2022-10-18T13:13:38.644Z,17.16
2022-10-18T13:15:12.512Z,17.26
2022-10-18T13:16:30.136Z,17.36
2022-10-18T13:17:58.531Z,17.47
2022-10-18T13:19:15.579Z,17.67
2022-10-18T13:20:36.751Z,17.57
2022-10-18T13:21:45.145Z,17.46
2022-10-18T13:23:08.108Z,17.48
2022-10-18T13:24:15.140Z,17.32
2022-10-18T13:25:17.242Z,17.29
2022-10-18T13:26:28.519Z,17.19
2022-10-18T13:27:38.360Z,17.17
2022-10-18T13:29:13.573Z,17.02
2022-10-18T13:30:41.507Z,17.01
2022-10-18T13:33:29.394Z,16.94
2022-10-18T13:34:39.139Z,17.02
2022-10-18T13:35:54.864Z,17.05
2022-10-18T13:37:24.134Z,16.98
2022-10-18T13:38:29.321Z,16.89
2022-10-18T13:39:33.116Z,16.79
2022-10-18T13:40:35.483Z,16.76
2022-10-18T13:41:46.960Z,16.77
2022-10-18T13:42:49.273Z,16.72
2022-10-18T13:44:10.468Z,16.71
2022-10-18T13:45:30.908Z,16.72
2022-10-18T13:46:33.189Z,16.77
2022-10-18T13:47:38.003Z,16.80
2022-10-18T13:48:52.245Z,16.79
2022-10-18T13:51:53.984Z,16.82
2022-10-18T13:53:09.327Z,16.96
2022-10-18T13:54:38.816Z,16.99
2022-10-18T13:56:06.012Z,17.00
2022-10-18T13:57:32.540Z,17.01
2022-10-18T13:59:06.097Z,16.99
2022-10-18T14:00:30.198Z,16.92
2022-10-18T14:01:37.663Z,16.88
2022-10-18T14:03:08.414Z,16.85
2022-10-18T14:04:52.378Z,16.71
2022-10-18T14:06:12.117Z,16.67
2022-10-18T14:07:18.298Z,16.66
2022-10-18T14:08:36.479Z,16.63
2022-10-18T14:09:55.016Z,16.64
2022-10-18T14:11:22.332Z,16.65
2022-10-18T14:12:39.955Z,16.72
2022-10-18T14:13:54.812Z,16.67
2022-10-18T14:15:08.082Z,16.63
2022-10-18T14:16:30.918Z,16.72
2022-10-18T14:17:56.761Z,16.71
2022-10-18T14:19:11.784Z,16.84
2022-10-18T14:20:20.026Z,16.82
2022-10-18T14:21:31.384Z,16.77
2022-10-18T14:22:45.039Z,16.73
2022-10-18T14:23:47.521Z,16.77
2022-10-18T14:24:54.229Z,16.70
2022-10-18T14:26:07.058Z,16.68
2022-10-18T14:27:16.685Z,16.55
2022-10-18T14:28:27.303Z,16.53
2022-10-18T14:29:39.527Z,16.66
2022-10-18T14:30:53.761Z,16.71
2022-10-18T14:31:56.389Z,16.70
2022-10-18T14:32:59.688Z,16.70
2022-10-18T14:34:03.361Z,16.59
2022-10-18T14:35:33.644Z,16.61
2022-10-18T14:36:47.675Z,16.53
2022-10-18T14:37:52.541Z,16.54
2022-10-18T14:38:54.772Z,16.59
2022-10-18T14:39:57.027Z,16.62
2022-10-18T14:41:07.466Z,16.57
2022-10-18T14:42:20.704Z,16.68
2022-10-18T14:43:22.952Z,16.72
2022-10-18T14:44:30.183Z,16.73
2022-10-18T14:45:32.533Z,16.75
2022-10-18T14:46:41.411Z,16.75
2022-10-18T14:47:45.493Z,16.87
2022-10-18T14:49:02.010Z,16.89
2022-10-18T14:50:20.044Z,16.90
2022-10-18T14:51:22.645Z,16.94
2022-10-18T14:52:35.313Z,17.00